sensor_id;sensor_type;location;lat;lon;timestamp;pressure;altitude;pressure_sealevel;temperature;humidity
47636;BME280;33364;50.766;15.338;2023-04-02T00:03:03;93918.84;;;4.48;86.26
47636;BME280;33364;50.766;15.338;2023-04-02T00:05:40;93922.97;;;4.44;86.25
47636;BME280;33364;50.766;15.338;2023-04-02T00:08:38;93920.09;;;4.46;86.70
47636;BME280;33364;50.766;15.338;2023-04-02T00:11:06;93933.34;;;4.51;86.55
47636;BME280;33364;50.766;15.338;2023-04-02T00:16:00;93936.91;;;4.56;86.82
47636;BME280;33364;50.766;15.338;2023-04-02T00:18:28;93932.19;;;4.58;86.75
47636;BME280;33364;50.766;15.338;2023-04-02T00:21:18;93935.41;;;4.60;86.90
47636;BME280;33364;50.766;15.338;2023-04-02T00:23:46;93936.00;;;4.63;87.08
47636;BME280;33364;50.766;15.338;2023-04-02T00:26:48;93936.09;;;4.68;87.09
47636;BME280;33364;50.766;15.338;2023-04-02T00:29:15;93939.75;;;4.67;87.07
47636;BME280;33364;50.766;15.338;2023-04-02T00:31:46;93935.84;;;4.69;87.10
47636;BME280;33364;50.766;15.338;2023-04-02T00:36:45;93948.28;;;4.74;86.64
47636;BME280;33364;50.766;15.338;2023-04-02T00:39:17;93948.41;;;4.79;86.86
47636;BME280;33364;50.766;15.338;2023-04-02T00:41:44;93951.84;;;4.80;86.76
47636;BME280;33364;50.766;15.338;2023-04-02T00:44:13;93949.44;;;4.78;86.74
47636;BME280;33364;50.766;15.338;2023-04-02T00:46:41;93952.88;;;4.78;87.07
47636;BME280;33364;50.766;15.338;2023-04-02T00:49:20;93955.25;;;4.80;86.76
47636;BME280;33364;50.766;15.338;2023-04-02T00:51:59;93964.31;;;4.84;86.50
47636;BME280;33364;50.766;15.338;2023-04-02T00:54:30;93964.78;;;4.81;86.36
47636;BME280;33364;50.766;15.338;2023-04-02T00:56:57;93962.69;;;4.83;86.05
47636;BME280;33364;50.766;15.338;2023-04-02T00:59:30;93962.94;;;4.82;85.76
47636;BME280;33364;50.766;15.338;2023-04-02T01:04:39;93962.03;;;4.76;86.22
47636;BME280;33364;50.766;15.338;2023-04-02T01:07:08;93964.91;;;4.74;86.31
47636;BME280;33364;50.766;15.338;2023-04-02T01:09:42;93964.91;;;4.74;86.25
47636;BME280;33364;50.766;15.338;2023-04-02T01:22:43;93970.84;;;4.70;84.86
47636;BME280;33364;50.766;15.338;2023-04-02T01:25:18;93975.44;;;4.63;84.41
47636;BME280;33364;50.766;15.338;2023-04-02T01:27:51;93978.66;;;4.65;84.33
47636;BME280;33364;50.766;15.338;2023-04-02T01:30:19;93977.81;;;4.64;83.91
47636;BME280;33364;50.766;15.338;2023-04-02T01:32:45;93985.97;;;4.63;83.76
47636;BME280;33364;50.766;15.338;2023-04-02T01:35:12;93985.50;;;4.66;83.96
47636;BME280;33364;50.766;15.338;2023-04-02T01:37:48;93985.59;;;4.59;83.27
47636;BME280;33364;50.766;15.338;2023-04-02T01:43:25;93997.41;;;4.56;83.69
47636;BME280;33364;50.766;15.338;2023-04-02T01:45:56;93999.94;;;4.51;82.58
47636;BME280;33364;50.766;15.338;2023-04-02T01:48:25;93999.91;;;4.39;82.29
47636;BME280;33364;50.766;15.338;2023-04-02T01:50:56;94014.56;;;4.35;82.05
47636;BME280;33364;50.766;15.338;2023-04-02T01:53:24;94009.75;;;4.32;83.32
47636;BME280;33364;50.766;15.338;2023-04-02T01:56:00;94015.13;;;4.26;83.42
47636;BME280;33364;50.766;15.338;2023-04-02T01:58:30;94021.28;;;4.19;81.98
47636;BME280;33364;50.766;15.338;2023-04-02T02:01:12;94025.97;;;4.17;82.08
47636;BME280;33364;50.766;15.338;2023-04-02T02:03:42;94023.47;;;4.11;82.56
47636;BME280;33364;50.766;15.338;2023-04-02T02:06:14;94021.41;;;4.13;82.64
47636;BME280;33364;50.766;15.338;2023-04-02T02:08:47;94029.97;;;4.08;82.05
47636;BME280;33364;50.766;15.338;2023-04-02T02:11:17;94028.44;;;4.00;82.26
47636;BME280;33364;50.766;15.338;2023-04-02T02:14:08;94028.38;;;4.07;82.48
47636;BME280;33364;50.766;15.338;2023-04-02T02:16:38;94027.56;;;4.07;82.32
47636;BME280;33364;50.766;15.338;2023-04-02T02:19:10;94034.88;;;4.04;82.09
47636;BME280;33364;50.766;15.338;2023-04-02T02:21:44;94039.34;;;4.04;82.80
47636;BME280;33364;50.766;15.338;2023-04-02T02:24:31;94033.25;;;4.03;81.69
47636;BME280;33364;50.766;15.338;2023-04-02T02:29:54;94038.94;;;3.77;81.51
47636;BME280;33364;50.766;15.338;2023-04-02T02:32:22;94042.78;;;3.74;81.84
47636;BME280;33364;50.766;15.338;2023-04-02T02:35:00;94043.97;;;3.78;81.75
47636;BME280;33364;50.766;15.338;2023-04-02T02:37:29;94044.31;;;3.82;80.83
47636;BME280;33364;50.766;15.338;2023-04-02T02:40:00;94051.13;;;3.71;81.10
47636;BME280;33364;50.766;15.338;2023-04-02T02:42:36;94055.09;;;3.62;81.78
47636;BME280;33364;50.766;15.338;2023-04-02T02:45:05;94052.91;;;3.59;81.96
47636;BME280;33364;50.766;15.338;2023-04-02T02:47:37;94057.38;;;3.58;82.24
47636;BME280;33364;50.766;15.338;2023-04-02T02:50:12;94062.09;;;3.68;81.63
47636;BME280;33364;50.766;15.338;2023-04-02T02:52:45;94058.75;;;3.61;81.27
47636;BME280;33364;50.766;15.338;2023-04-02T02:55:15;94075.09;;;3.63;81.45
47636;BME280;33364;50.766;15.338;2023-04-02T02:57:55;94071.53;;;3.57;81.52
47636;BME280;33364;50.766;15.338;2023-04-02T03:00:23;94072.47;;;3.44;80.85
47636;BME280;33364;50.766;15.338;2023-04-02T03:02:51;94083.00;;;3.44;80.81
47636;BME280;33364;50.766;15.338;2023-04-02T03:05:21;94080.44;;;3.38;80.88
47636;BME280;33364;50.766;15.338;2023-04-02T03:07:49;94080.22;;;3.39;81.27
47636;BME280;33364;50.766;15.338;2023-04-02T03:10:18;94085.78;;;3.31;80.33
47636;BME280;33364;50.766;15.338;2023-04-02T03:23:56;94100.81;;;3.24;80.36
47636;BME280;33364;50.766;15.338;2023-04-02T03:26:37;94102.41;;;3.25;80.27
47636;BME280;33364;50.766;15.338;2023-04-02T03:29:17;94108.31;;;3.20;80.35
47636;BME280;33364;50.766;15.338;2023-04-02T03:31:52;94113.13;;;3.05;79.73
47636;BME280;33364;50.766;15.338;2023-04-02T03:34:23;94112.75;;;3.01;80.11
47636;BME280;33364;50.766;15.338;2023-04-02T03:37:10;94118.75;;;3.08;80.41
47636;BME280;33364;50.766;15.338;2023-04-02T03:39:44;94130.78;;;2.98;80.12
47636;BME280;33364;50.766;15.338;2023-04-02T03:42:20;94130.03;;;2.90;80.21
47636;BME280;33364;50.766;15.338;2023-04-02T03:44:51;94137.09;;;2.90;79.43
47636;BME280;33364;50.766;15.338;2023-04-02T03:47:37;94142.03;;;2.80;79.26
47636;BME280;33364;50.766;15.338;2023-04-02T03:50:10;94142.75;;;2.68;79.35
47636;BME280;33364;50.766;15.338;2023-04-02T03:52:40;94149.41;;;2.64;79.42
47636;BME280;33364;50.766;15.338;2023-04-02T03:55:15;94150.66;;;2.62;79.37
47636;BME280;33364;50.766;15.338;2023-04-02T03:57:54;94157.13;;;2.59;79.04
47636;BME280;33364;50.766;15.338;2023-04-02T04:00:32;94163.59;;;2.56;79.86
47636;BME280;33364;50.766;15.338;2023-04-02T04:03:27;94173.03;;;2.64;78.57
47636;BME280;33364;50.766;15.338;2023-04-02T04:06:05;94174.41;;;2.42;78.78
47636;BME280;33364;50.766;15.338;2023-04-02T04:08:40;94166.00;;;2.33;79.07
47636;BME280;33364;50.766;15.338;2023-04-02T04:11:13;94181.69;;;2.39;79.62
47636;BME280;33364;50.766;15.338;2023-04-02T04:13:49;94184.88;;;2.42;79.94
47636;BME280;33364;50.766;15.338;2023-04-02T04:16:25;94187.00;;;2.26;78.04
47636;BME280;33364;50.766;15.338;2023-04-02T04:18:58;94188.31;;;2.10;79.09
47636;BME280;33364;50.766;15.338;2023-04-02T04:21:28;94189.50;;;2.14;79.60
47636;BME280;33364;50.766;15.338;2023-04-02T04:24:05;94198.56;;;2.12;80.29
47636;BME280;33364;50.766;15.338;2023-04-02T04:26:44;94201.03;;;2.07;79.75
47636;BME280;33364;50.766;15.338;2023-04-02T04:29:35;94202.03;;;2.06;79.37
47636;BME280;33364;50.766;15.338;2023-04-02T04:34:46;94205.69;;;2.05;79.60
47636;BME280;33364;50.766;15.338;2023-04-02T04:37:31;94215.75;;;2.08;80.10
47636;BME280;33364;50.766;15.338;2023-04-02T04:40:19;94211.75;;;1.98;78.20
47636;BME280;33364;50.766;15.338;2023-04-02T04:42:49;94218.00;;;1.97;79.00
47636;BME280;33364;50.766;15.338;2023-04-02T04:45:49;94228.47;;;1.97;78.39
47636;BME280;33364;50.766;15.338;2023-04-02T04:48:49;94235.34;;;1.98;77.60
47636;BME280;33364;50.766;15.338;2023-04-02T04:51:24;94236.78;;;1.88;78.14
47636;BME280;33364;50.766;15.338;2023-04-02T04:53:53;94244.84;;;1.86;77.53
47636;BME280;33364;50.766;15.338;2023-04-02T04:56:25;94253.31;;;1.88;77.77
47636;BME280;33364;50.766;15.338;2023-04-02T04:59:11;94242.00;;;1.88;78.40
47636;BME280;33364;50.766;15.338;2023-04-02T05:01:47;94253.72;;;1.85;77.64
47636;BME280;33364;50.766;15.338;2023-04-02T05:04:21;94259.56;;;1.87;77.42
47636;BME280;33364;50.766;15.338;2023-04-02T05:06:56;94265.78;;;1.86;77.89
47636;BME280;33364;50.766;15.338;2023-04-02T05:09:44;94268.59;;;1.91;77.14
47636;BME280;33364;50.766;15.338;2023-04-02T05:12:33;94265.00;;;1.86;76.50
47636;BME280;33364;50.766;15.338;2023-04-02T05:20:12;94288.19;;;1.82;77.00
47636;BME280;33364;50.766;15.338;2023-04-02T05:22:47;94298.06;;;1.80;76.67
47636;BME280;33364;50.766;15.338;2023-04-02T05:25:25;94293.66;;;1.74;76.17
47636;BME280;33364;50.766;15.338;2023-04-02T05:28:17;94297.69;;;1.70;77.28
47636;BME280;33364;50.766;15.338;2023-04-02T05:30:53;94306.75;;;1.67;77.45
47636;BME280;33364;50.766;15.338;2023-04-02T05:35:52;94304.56;;;1.57;76.13
47636;BME280;33364;50.766;15.338;2023-04-02T05:38:26;94303.75;;;1.50;75.70
47636;BME280;33364;50.766;15.338;2023-04-02T05:41:05;94310.63;;;1.51;76.33
47636;BME280;33364;50.766;15.338;2023-04-02T05:43:33;94315.06;;;1.51;75.99
47636;BME280;33364;50.766;15.338;2023-04-02T05:46:07;94314.66;;;1.34;76.26
47636;BME280;33364;50.766;15.338;2023-04-02T05:48:39;94333.16;;;1.19;76.67
47636;BME280;33364;50.766;15.338;2023-04-02T05:51:15;94340.41;;;1.03;77.60
47636;BME280;33364;50.766;15.338;2023-04-02T05:53:50;94345.66;;;0.97;77.48
47636;BME280;33364;50.766;15.338;2023-04-02T05:56:41;94350.66;;;0.91;77.97
47636;BME280;33364;50.766;15.338;2023-04-02T05:59:24;94355.09;;;0.91;77.59
47636;BME280;33364;50.766;15.338;2023-04-02T06:05:00;94349.66;;;0.93;77.56
47636;BME280;33364;50.766;15.338;2023-04-02T06:07:35;94369.78;;;1.05;77.36
47636;BME280;33364;50.766;15.338;2023-04-02T06:10:11;94354.50;;;1.09;77.31
47636;BME280;33364;50.766;15.338;2023-04-02T06:12:50;94358.34;;;1.20;77.19
47636;BME280;33364;50.766;15.338;2023-04-02T06:15:19;94369.22;;;1.17;76.05
47636;BME280;33364;50.766;15.338;2023-04-02T06:17:58;94366.19;;;1.26;75.89
47636;BME280;33364;50.766;15.338;2023-04-02T06:20:24;94365.78;;;1.30;75.29
47636;BME280;33364;50.766;15.338;2023-04-02T06:23:05;94379.47;;;1.25;75.43
47636;BME280;33364;50.766;15.338;2023-04-02T06:25:38;94377.84;;;1.24;76.38
47636;BME280;33364;50.766;15.338;2023-04-02T06:28:14;94387.94;;;1.47;75.50
47636;BME280;33364;50.766;15.338;2023-04-02T06:30:41;94384.31;;;1.21;75.15
47636;BME280;33364;50.766;15.338;2023-04-02T06:33:10;94392.56;;;1.25;76.57
47636;BME280;33364;50.766;15.338;2023-04-02T06:35:39;94386.34;;;1.26;77.02
47636;BME280;33364;50.766;15.338;2023-04-02T06:38:22;94398.41;;;1.34;77.19
47636;BME280;33364;50.766;15.338;2023-04-02T06:40:52;94401.22;;;1.39;77.45
47636;BME280;33364;50.766;15.338;2023-04-02T06:43:24;94403.63;;;1.40;75.93
47636;BME280;33364;50.766;15.338;2023-04-02T06:45:55;94404.88;;;1.51;75.74
47636;BME280;33364;50.766;15.338;2023-04-02T06:48:24;94413.50;;;1.58;75.85
47636;BME280;33364;50.766;15.338;2023-04-02T06:53:33;94413.91;;;1.55;74.47
47636;BME280;33364;50.766;15.338;2023-04-02T06:58:44;94417.56;;;1.68;73.89
47636;BME280;33364;50.766;15.338;2023-04-02T07:01:20;94430.84;;;1.86;74.81
47636;BME280;33364;50.766;15.338;2023-04-02T07:03:47;94430.22;;;2.04;73.90
47636;BME280;33364;50.766;15.338;2023-04-02T07:06:18;94451.16;;;2.11;73.30
47636;BME280;33364;50.766;15.338;2023-04-02T07:08:45;94438.28;;;2.02;73.74
47636;BME280;33364;50.766;15.338;2023-04-02T07:11:15;94448.56;;;1.97;74.25
47636;BME280;33364;50.766;15.338;2023-04-02T07:13:42;94453.38;;;2.07;74.21
47636;BME280;33364;50.766;15.338;2023-04-02T07:16:19;94447.34;;;2.07;73.91
47636;BME280;33364;50.766;15.338;2023-04-02T07:18:46;94451.59;;;2.08;73.49
47636;BME280;33364;50.766;15.338;2023-04-02T07:21:12;94455.81;;;1.95;73.54
47636;BME280;33364;50.766;15.338;2023-04-02T07:23:38;94460.06;;;1.96;74.25
47636;BME280;33364;50.766;15.338;2023-04-02T07:26:05;94466.69;;;1.92;73.95
47636;BME280;33364;50.766;15.338;2023-04-02T07:28:32;94465.91;;;1.98;73.70
47636;BME280;33364;50.766;15.338;2023-04-02T07:30:57;94463.69;;;1.95;73.33
47636;BME280;33364;50.766;15.338;2023-04-02T07:33:27;94465.91;;;1.98;73.84
47636;BME280;33364;50.766;15.338;2023-04-02T07:35:54;94470.16;;;1.99;74.12
47636;BME280;33364;50.766;15.338;2023-04-02T07:38:21;94480.41;;;2.01;74.16
47636;BME280;33364;50.766;15.338;2023-04-02T07:40:46;94483.44;;;2.18;73.95
47636;BME280;33364;50.766;15.338;2023-04-02T07:43:13;94483.97;;;2.53;74.11
47636;BME280;33364;50.766;15.338;2023-04-02T07:45:39;94485.31;;;2.69;72.81
47636;BME280;33364;50.766;15.338;2023-04-02T07:48:10;94488.31;;;2.86;72.44
47636;BME280;33364;50.766;15.338;2023-04-02T07:50:36;94497.97;;;2.92;70.80
47636;BME280;33364;50.766;15.338;2023-04-02T07:53:03;94501.84;;;2.83;71.30
47636;BME280;33364;50.766;15.338;2023-04-02T07:55:28;94506.34;;;2.56;71.82
47636;BME280;33364;50.766;15.338;2023-04-02T07:57:56;94523.72;;;2.30;73.36
47636;BME280;33364;50.766;15.338;2023-04-02T08:00:22;94531.81;;;1.82;75.24
47636;BME280;33364;50.766;15.338;2023-04-02T08:02:49;94535.91;;;1.30;77.59
47636;BME280;33364;50.766;15.338;2023-04-02T08:05:15;94543.69;;;1.09;79.30
47636;BME280;33364;50.766;15.338;2023-04-02T08:07:42;94545.66;;;1.01;79.59
47636;BME280;33364;50.766;15.338;2023-04-02T08:10:10;94542.38;;;0.85;80.60
47636;BME280;33364;50.766;15.338;2023-04-02T08:12:36;94550.00;;;0.80;81.22
47636;BME280;33364;50.766;15.338;2023-04-02T08:15:04;94563.66;;;0.76;80.99
47636;BME280;33364;50.766;15.338;2023-04-02T08:17:33;94563.00;;;0.67;81.33
47636;BME280;33364;50.766;15.338;2023-04-02T08:19:59;94568.06;;;0.75;80.96
47636;BME280;33364;50.766;15.338;2023-04-02T08:22:29;94577.91;;;0.73;81.27
47636;BME280;33364;50.766;15.338;2023-04-02T08:24:55;94577.16;;;0.44;81.79
47636;BME280;33364;50.766;15.338;2023-04-02T08:27:24;94572.25;;;0.34;82.39
47636;BME280;33364;50.766;15.338;2023-04-02T08:29:51;94584.56;;;0.19;82.60
47636;BME280;33364;50.766;15.338;2023-04-02T08:32:17;94590.53;;;0.13;83.05
47636;BME280;33364;50.766;15.338;2023-04-02T08:34:43;94599.81;;;0.15;83.13
47636;BME280;33364;50.766;15.338;2023-04-02T08:37:11;94602.69;;;0.21;84.01
47636;BME280;33364;50.766;15.338;2023-04-02T08:39:37;94602.00;;;0.12;83.61
47636;BME280;33364;50.766;15.338;2023-04-02T08:42:14;94618.56;;;-0.03;83.79
47636;BME280;33364;50.766;15.338;2023-04-02T08:47:23;94635.88;;;-0.16;83.86
47636;BME280;33364;50.766;15.338;2023-04-02T08:49:58;94640.50;;;-0.19;84.73
47636;BME280;33364;50.766;15.338;2023-04-02T08:52:34;94644.19;;;-0.13;83.81
47636;BME280;33364;50.766;15.338;2023-04-02T08:55:02;94648.19;;;-0.10;83.20
47636;BME280;33364;50.766;15.338;2023-04-02T08:57:47;94658.91;;;-0.05;83.12
47636;BME280;33364;50.766;15.338;2023-04-02T09:00:26;94657.13;;;-0.05;82.66
47636;BME280;33364;50.766;15.338;2023-04-02T09:02:57;94665.25;;;0.07;83.14
47636;BME280;33364;50.766;15.338;2023-04-02T09:05:27;94674.63;;;0.02;82.76
47636;BME280;33364;50.766;15.338;2023-04-02T09:07:57;94679.19;;;-0.07;83.19
47636;BME280;33364;50.766;15.338;2023-04-02T09:10:41;94687.19;;;-0.09;83.34
47636;BME280;33364;50.766;15.338;2023-04-02T09:13:19;94691.91;;;-0.19;83.49
47636;BME280;33364;50.766;15.338;2023-04-02T09:15:47;94690.91;;;-0.18;83.90
47636;BME280;33364;50.766;15.338;2023-04-02T09:18:16;94685.59;;;-0.25;84.01
47636;BME280;33364;50.766;15.338;2023-04-02T09:20:42;94694.78;;;-0.14;84.00
47636;BME280;33364;50.766;15.338;2023-04-02T09:23:23;94703.16;;;-0.19;83.05
47636;BME280;33364;50.766;15.338;2023-04-02T09:25:52;94713.41;;;-0.17;83.08
47636;BME280;33364;50.766;15.338;2023-04-02T09:28:19;94712.97;;;-0.21;83.18
47636;BME280;33364;50.766;15.338;2023-04-02T09:33:11;94723.56;;;-0.07;83.04
47636;BME280;33364;50.766;15.338;2023-04-02T09:35:54;94728.25;;;-0.03;82.32
47636;BME280;33364;50.766;15.338;2023-04-02T09:38:25;94743.84;;;-0.09;82.45
47636;BME280;33364;50.766;15.338;2023-04-02T09:43:31;94751.88;;;-0.26;82.77
47636;BME280;33364;50.766;15.338;2023-04-02T09:48:44;94756.66;;;-0.14;82.40
47636;BME280;33364;50.766;15.338;2023-04-02T09:51:18;94760.88;;;-0.13;82.11
47636;BME280;33364;50.766;15.338;2023-04-02T09:56:26;94767.34;;;-0.09;82.08
47636;BME280;33364;50.766;15.338;2023-04-02T10:01:42;94768.16;;;-0.09;81.77
47636;BME280;33364;50.766;15.338;2023-04-02T10:04:48;94776.44;;;-0.05;82.07
47636;BME280;33364;50.766;15.338;2023-04-02T10:07:36;94773.13;;;-0.14;82.18
47636;BME280;33364;50.766;15.338;2023-04-02T10:10:18;94778.63;;;-0.24;83.04
47636;BME280;33364;50.766;15.338;2023-04-02T10:12:50;94788.72;;;-0.21;82.98
47636;BME280;33364;50.766;15.338;2023-04-02T10:15:26;94788.44;;;-0.11;82.89
47636;BME280;33364;50.766;15.338;2023-04-02T10:18:00;94785.56;;;-0.16;82.94
47636;BME280;33364;50.766;15.338;2023-04-02T10:20:28;94791.59;;;-0.30;83.59
47636;BME280;33364;50.766;15.338;2023-04-02T10:22:55;94800.22;;;-0.30;83.65
47636;BME280;33364;50.766;15.338;2023-04-02T10:25:24;94793.47;;;-0.24;83.76
47636;BME280;33364;50.766;15.338;2023-04-02T10:32:56;94796.09;;;-0.09;82.84
47636;BME280;33364;50.766;15.338;2023-04-02T10:40:34;94814.81;;;-0.21;82.63
47636;BME280;33364;50.766;15.338;2023-04-02T10:45:50;94816.19;;;-0.10;83.48
47636;BME280;33364;50.766;15.338;2023-04-02T10:51:06;94827.69;;;-0.19;82.56
47636;BME280;33364;50.766;15.338;2023-04-02T10:56:14;94840.13;;;-0.21;83.10
47636;BME280;33364;50.766;15.338;2023-04-02T10:59:12;94838.50;;;-0.22;83.08
47636;BME280;33364;50.766;15.338;2023-04-02T11:01:42;94840.75;;;-0.19;82.89
47636;BME280;33364;50.766;15.338;2023-04-02T11:04:17;94848.50;;;-0.26;83.18
47636;BME280;33364;50.766;15.338;2023-04-02T11:06:53;94844.25;;;-0.27;82.40
47636;BME280;33364;50.766;15.338;2023-04-02T11:09:29;94853.72;;;-0.11;81.89
47636;BME280;33364;50.766;15.338;2023-04-02T11:11:58;94864.97;;;-0.25;82.40
47636;BME280;33364;50.766;15.338;2023-04-02T11:14:26;94865.75;;;-0.25;82.10
47636;BME280;33364;50.766;15.338;2023-04-02T11:16:54;94867.56;;;-0.25;82.38
47636;BME280;33364;50.766;15.338;2023-04-02T11:19:29;94876.78;;;-0.14;82.22
47636;BME280;33364;50.766;15.338;2023-04-02T11:32:45;94892.09;;;0.04;79.98
47636;BME280;33364;50.766;15.338;2023-04-02T11:35:36;94891.91;;;-0.10;80.27
47636;BME280;33364;50.766;15.338;2023-04-02T11:46:03;94912.84;;;-0.18;82.14
47636;BME280;33364;50.766;15.338;2023-04-02T11:48:34;94911.50;;;-0.29;82.72
47636;BME280;33364;50.766;15.338;2023-04-02T11:53:51;94924.84;;;-0.24;83.20
47636;BME280;33364;50.766;15.338;2023-04-02T11:56:31;94934.75;;;-0.19;83.03
47636;BME280;33364;50.766;15.338;2023-04-02T12:05:02;94938.47;;;0.02;82.47
47636;BME280;33364;50.766;15.338;2023-04-02T12:10:27;94943.59;;;-0.05;81.23
47636;BME280;33364;50.766;15.338;2023-04-02T12:12:56;94945.75;;;0.06;81.88
47636;BME280;33364;50.766;15.338;2023-04-02T12:15:58;94949.53;;;-0.11;82.03
47636;BME280;33364;50.766;15.338;2023-04-02T12:18:23;94948.72;;;-0.12;82.58
47636;BME280;33364;50.766;15.338;2023-04-02T12:20:52;94956.09;;;-0.15;82.49
47636;BME280;33364;50.766;15.338;2023-04-02T12:23:21;94960.41;;;-0.23;82.70
47636;BME280;33364;50.766;15.338;2023-04-02T12:28:24;94966.41;;;-0.37;83.69
47636;BME280;33364;50.766;15.338;2023-04-02T12:33:38;94971.66;;;-0.22;83.42
47636;BME280;33364;50.766;15.338;2023-04-02T12:36:17;94970.59;;;-0.28;83.54
47636;BME280;33364;50.766;15.338;2023-04-02T12:41:29;94984.00;;;-0.31;83.54
47636;BME280;33364;50.766;15.338;2023-04-02T12:44:01;94985.88;;;-0.25;83.11
47636;BME280;33364;50.766;15.338;2023-04-02T12:46:28;94986.78;;;-0.32;82.48
47636;BME280;33364;50.766;15.338;2023-04-02T12:49:03;94986.28;;;-0.36;81.56
47636;BME280;33364;50.766;15.338;2023-04-02T12:51:31;94988.03;;;-0.28;81.30
47636;BME280;33364;50.766;15.338;2023-04-02T12:53:56;94982.47;;;-0.25;81.42
47636;BME280;33364;50.766;15.338;2023-04-02T12:56:23;94983.25;;;-0.25;80.14
47636;BME280;33364;50.766;15.338;2023-04-02T12:58:53;94985.53;;;-0.22;80.68
47636;BME280;33364;50.766;15.338;2023-04-02T13:01:27;94971.50;;;-0.21;80.89
47636;BME280;33364;50.766;15.338;2023-04-02T13:04:05;94985.44;;;-0.13;81.25
47636;BME280;33364;50.766;15.338;2023-04-02T13:06:32;94989.91;;;0.01;80.68
47636;BME280;33364;50.766;15.338;2023-04-02T13:09:00;94995.09;;;-0.14;81.42
47636;BME280;33364;50.766;15.338;2023-04-02T13:11:37;94996.56;;;-0.11;81.07
47636;BME280;33364;50.766;15.338;2023-04-02T13:14:07;95003.09;;;-0.15;82.09
47636;BME280;33364;50.766;15.338;2023-04-02T13:16:37;95009.75;;;-0.28;82.38
47636;BME280;33364;50.766;15.338;2023-04-02T13:21:35;95013.19;;;-0.50;82.68
47636;BME280;33364;50.766;15.338;2023-04-02T13:24:01;95008.28;;;-0.53;83.12
47636;BME280;33364;50.766;15.338;2023-04-02T13:26:28;95009.22;;;-0.46;82.71
47636;BME280;33364;50.766;15.338;2023-04-02T13:31:49;95006.19;;;-0.35;82.26
47636;BME280;33364;50.766;15.338;2023-04-02T13:34:15;95004.75;;;-0.38;80.71
47636;BME280;33364;50.766;15.338;2023-04-02T13:36:43;95007.38;;;-0.38;80.91
47636;BME280;33364;50.766;15.338;2023-04-02T13:39:09;95009.44;;;-0.33;80.71
47636;BME280;33364;50.766;15.338;2023-04-02T13:41:59;95009.78;;;-0.36;80.29
47636;BME280;33364;50.766;15.338;2023-04-02T13:44:27;95016.19;;;-0.39;80.92
47636;BME280;33364;50.766;15.338;2023-04-02T13:46:54;95013.16;;;-0.27;80.87
47636;BME280;33364;50.766;15.338;2023-04-02T13:49:21;95009.31;;;-0.16;79.61
47636;BME280;33364;50.766;15.338;2023-04-02T13:51:52;95016.38;;;-0.02;79.36
47636;BME280;33364;50.766;15.338;2023-04-02T13:54:48;95017.66;;;0.02;78.65
47636;BME280;33364;50.766;15.338;2023-04-02T13:57:16;95025.78;;;0.07;78.31
47636;BME280;33364;50.766;15.338;2023-04-02T13:59:41;95020.78;;;-0.03;78.14
47636;BME280;33364;50.766;15.338;2023-04-02T14:02:27;95020.44;;;0.01;78.26
47636;BME280;33364;50.766;15.338;2023-04-02T14:21:16;95032.91;;;0.13;77.45
47636;BME280;33364;50.766;15.338;2023-04-02T14:29:57;95037.47;;;0.11;78.47
47636;BME280;33364;50.766;15.338;2023-04-02T14:32:42;95039.81;;;0.06;78.79
47636;BME280;33364;50.766;15.338;2023-04-02T14:35:33;95043.19;;;0.15;78.91
47636;BME280;33364;50.766;15.338;2023-04-02T14:38:28;95045.88;;;0.07;79.65
47636;BME280;33364;50.766;15.338;2023-04-02T14:46:12;95059.84;;;0.14;79.08
47636;BME280;33364;50.766;15.338;2023-04-02T14:53:53;95074.06;;;0.11;79.39
47636;BME280;33364;50.766;15.338;2023-04-02T14:56:23;95070.66;;;0.26;79.40
47636;BME280;33364;50.766;15.338;2023-04-02T14:59:11;95087.25;;;0.18;79.23
47636;BME280;33364;50.766;15.338;2023-04-02T15:01:41;95078.72;;;0.01;79.56
47636;BME280;33364;50.766;15.338;2023-04-02T15:04:19;95080.88;;;-0.03;80.02
47636;BME280;33364;50.766;15.338;2023-04-02T15:06:50;95079.53;;;0.02;80.03
47636;BME280;33364;50.766;15.338;2023-04-02T15:12:03;95086.25;;;-0.04;80.17
47636;BME280;33364;50.766;15.338;2023-04-02T15:14:43;95100.00;;;0.13;79.91
47636;BME280;33364;50.766;15.338;2023-04-02T15:17:10;95100.50;;;0.16;79.98
47636;BME280;33364;50.766;15.338;2023-04-02T15:19:37;95107.16;;;0.19;79.81
47636;BME280;33364;50.766;15.338;2023-04-02T15:22:13;95113.91;;;0.13;79.06
47636;BME280;33364;50.766;15.338;2023-04-02T15:24:50;95109.66;;;0.12;79.49
47636;BME280;33364;50.766;15.338;2023-04-02T15:30:41;95117.34;;;0.29;78.63
47636;BME280;33364;50.766;15.338;2023-04-02T15:33:34;95123.88;;;0.33;78.08
47636;BME280;33364;50.766;15.338;2023-04-02T15:38:56;95123.69;;;0.34;77.84
47636;BME280;33364;50.766;15.338;2023-04-02T15:41:24;95126.84;;;0.30;77.92
47636;BME280;33364;50.766;15.338;2023-04-02T15:44:13;95135.16;;;0.48;77.03
47636;BME280;33364;50.766;15.338;2023-04-02T15:46:58;95129.44;;;0.30;77.42
47636;BME280;33364;50.766;15.338;2023-04-02T15:49:41;95142.44;;;0.38;77.28
47636;BME280;33364;50.766;15.338;2023-04-02T15:55:07;95138.28;;;0.29;77.65
47636;BME280;33364;50.766;15.338;2023-04-02T16:06:33;95150.41;;;0.45;76.99
47636;BME280;33364;50.766;15.338;2023-04-02T16:09:26;95158.81;;;0.32;77.56
47636;BME280;33364;50.766;15.338;2023-04-02T16:12:08;95163.44;;;0.30;77.36
47636;BME280;33364;50.766;15.338;2023-04-02T16:14:37;95156.84;;;0.34;76.74
47636;BME280;33364;50.766;15.338;2023-04-02T16:17:09;95165.03;;;0.31;76.68
47636;BME280;33364;50.766;15.338;2023-04-02T16:19:40;95166.94;;;0.37;76.10
47636;BME280;33364;50.766;15.338;2023-04-02T16:22:21;95171.38;;;0.36;76.23
47636;BME280;33364;50.766;15.338;2023-04-02T16:24:56;95166.78;;;0.39;76.60
47636;BME280;33364;50.766;15.338;2023-04-02T16:27:37;95170.69;;;0.43;75.74
47636;BME280;33364;50.766;15.338;2023-04-02T16:35:49;95168.75;;;0.36;75.80
47636;BME280;33364;50.766;15.338;2023-04-02T16:49:15;95179.16;;;0.22;75.55
47636;BME280;33364;50.766;15.338;2023-04-02T16:52:05;95182.25;;;0.25;74.97
47636;BME280;33364;50.766;15.338;2023-04-02T16:54:47;95184.00;;;0.33;75.52